METAR Data
IDs: Format: Raw Decoded Include TAF

Data at: 0112 UTC 25 Mar 2019

KDNS 250055Z AUTO 04006KT 6SM BR SCT009 BKN016 OVC023 07/07 A3012 RMK AO2
KDNS 250035Z AUTO 03007KT 5SM BR OVC009 08/07 A3012 RMK AO2
KDNS 250015Z AUTO 03009KT 4SM BR OVC010 07/07 A3011 RMK AO2
KDNS 242355Z AUTO 03008KT 3SM BR OVC009 07/07 A3011 RMK AO2
KDNS 242335Z AUTO 04007KT 2 1/2SM BR OVC006 07/07 A3010 RMK AO2
KDNS 242315Z AUTO 03009KT 1 3/4SM BR OVC003 07/07 A3009 RMK AO2
KDNS 242255Z AUTO 03010KT 2SM BR OVC004 07/07 A3009 RMK AO2
KDNS 242235Z AUTO 04008G14KT 5SM BR OVC006 07/07 A3008 RMK AO2
KDNS 242215Z AUTO 03011KT 7SM OVC006 07/07 A3008 RMK AO2
KDNS 242155Z AUTO 03009KT 7SM OVC006 07/07 A3007 RMK AO2
KDNS 242135Z AUTO 03008KT 5SM BR OVC005 07/07 A3007 RMK AO2
KDNS 242115Z AUTO 04007G12KT 6SM BR OVC005 07/07 A3006 RMK AO2
KDNS 242055Z AUTO 04007KT 5SM BR OVC005 07/07 A3005 RMK AO2
KDNS 242035Z AUTO 04009KT 5SM BR OVC005 07/07 A3005 RMK AO2
KDNS 242015Z AUTO 03008G14KT 3SM BR OVC004 07/07 A3004 RMK AO2
KDNS 241955Z AUTO 02012KT OVC003 06/06 A3004 RMK AO2
KDNS 241935Z AUTO 02012G17KT 1 1/4SM BR OVC003 06/06 A3003 RMK AO2
KDNS 241915Z AUTO 02014KT 3SM BR OVC004 07/07 A3003 RMK AO2
KDNS 241855Z AUTO 03008G14KT 2 1/2SM BR OVC003 07/07 A3003 RMK AO2
KDNS 241835Z AUTO 02009KT 1 1/2SM BR OVC003 07/07 A3003 RMK AO2
KDNS 241815Z AUTO 02008G14KT 1 3/4SM BR OVC003 07/07 A3003 RMK AO2
KDNS 241755Z AUTO 03010KT 1 3/4SM BR OVC003 06/06 A3002 RMK AO2
KDNS 241735Z AUTO 04008KT 2 1/2SM BR OVC004 06/06 A3002 RMK AO2
KDNS 241715Z AUTO 04008KT 2 1/2SM BR OVC004 06/06 A3002 RMK AO2
KDNS 241655Z AUTO 04006KT 1 1/2SM BR OVC003 06/06 A3002 RMK AO2
KDNS 241635Z AUTO 03010G15KT 2SM BR OVC003 05/05 A3002 RMK AO2
KDNS 241615Z AUTO 03009KT 5SM BR OVC004 05/05 A3002 RMK AO2
KDNS 241555Z AUTO 04005KT 3SM BR OVC004 05/05 A3002 RMK AO2
KDNS 241535Z AUTO 06003KT 2 1/2SM BR OVC003 05/05 A3001 RMK AO2
KDNS 241515Z AUTO 08004G11KT 1 1/2SM BR OVC003 05/05 A3001 RMK AO2
KDNS 241455Z AUTO 08007KT 050V110 1 3/4SM -RA OVC003 05/05 A3000 RMK AO2 P0001
KDNS 241435Z AUTO 05008KT 2SM -RA OVC003 05/05 A3001 RMK AO2
KDNS 241415Z AUTO 04006KT 1SM -RA OVC003 05/05 A3000 RMK AO2
KDNS 241355Z AUTO 04009KT 3/4SM -RA OVC003 05/05 A2999 RMK AO2 P0001
KDNS 241335Z AUTO 04009KT 1 1/4SM -UP OVC003 05/05 A2999 RMK AO2
KDNS 241315Z AUTO 04006G12KT 1 1/4SM BR OVC003 05/05 A2999 RMK AO2
KDNS 241255Z AUTO 04005G10KT 1SM BR OVC003 05/05 A2998 RMK AO2
KDNS 241235Z AUTO VRB05KT 2SM BR OVC003 05/05 A2998 RMK AO2
KDNS 241215Z AUTO 06005KT 2SM BR OVC003 05/05 A2998 RMK AO2
KDNS 241155Z AUTO 06007KT 2SM BR OVC003 05/05 A2997 RMK AO2 P0001
KDNS 241135Z AUTO 06006KT 2SM BR OVC003 05/05 A2997 RMK AO2
KDNS 241115Z AUTO 05007KT 1 3/4SM -RA OVC003 05/05 A2997 RMK AO2
KDNS 241055Z AUTO 05007KT 1 1/4SM -RA OVC003 05/05 A2997 RMK AO2 P0001
KDNS 241035Z AUTO 05006KT 1SM -UP OVC003 05/05 A2997 RMK AO2
KDNS 241015Z AUTO 05004KT 1SM -UP OVC003 05/05 A2997 RMK AO2
KDNS 240955Z AUTO 05005KT 1 1/2SM -UP OVC005 05/05 A2997 RMK AO2
KDNS 240935Z AUTO 06006KT 1 1/2SM BR OVC006 06/06 A2997 RMK AO2
KDNS 240915Z AUTO 05006KT 2SM BR OVC005 06/06 A2997 RMK AO2
KDNS 240855Z AUTO 06004KT 2SM BR OVC007 06/06 A2998 RMK AO2
KDNS 240835Z AUTO 07004KT 9SM OVC010 06/05 A2998 RMK AO2
KDNS 240815Z AUTO 06005KT 10SM OVC011 07/05 A2999 RMK AO2
KDNS 240755Z AUTO 09006KT 10SM OVC012 07/05 A2999 RMK AO2
KDNS 240735Z AUTO 08006KT 10SM BKN015 OVC021 07/05 A2999 RMK AO2
KDNS 240715Z AUTO 09007KT 10SM OVC018 07/05 A3000 RMK AO2
KDNS 240655Z AUTO 11007KT 10SM OVC018 07/05 A3000 RMK AO2
KDNS 240635Z AUTO 11007KT 10SM SCT019 OVC028 07/05 A3000 RMK AO2
KDNS 240615Z AUTO 12006G11KT 10SM BKN024 OVC029 07/05 A3000 RMK AO2
KDNS 240555Z AUTO 11009KT 10SM OVC023 07/05 A3000 RMK AO2
KDNS 240535Z AUTO 11010KT 10SM BKN024 OVC038 07/05 A3001 RMK AO2
KDNS 240515Z AUTO 11011KT 10SM FEW024 SCT030 OVC037 07/05 A3001 RMK AO2
KDNS 240455Z AUTO 11010KT 10SM SCT030 OVC035 07/05 A3001 RMK AO2
KDNS 240435Z AUTO 11009G14KT 10SM OVC033 08/05 A3002 RMK AO2
KDNS 240415Z AUTO 11010KT 10SM BKN030 OVC041 07/05 A3002 RMK AO2
KDNS 240355Z AUTO 11010KT 10SM SCT032 OVC041 07/05 A3003 RMK AO2
KDNS 240335Z AUTO 11009KT 10SM BKN034 OVC041 07/05 A3003 RMK AO2
KDNS 240315Z AUTO 11009KT 10SM OVC034 07/05 A3003 RMK AO2
KDNS 240255Z AUTO 13007KT 10SM OVC032 07/05 A3004 RMK AO2
KDNS 240235Z AUTO 12008KT 10SM BKN029 BKN036 OVC110 08/04 A3004 RMK AO2
KDNS 240215Z AUTO 13007KT 10SM BKN032 OVC110 08/04 A3003 RMK AO2
KDNS 240155Z AUTO 09010KT 10SM OVC031 08/04 A3003 RMK AO2
KDNS 240135Z AUTO 12006KT 10SM SCT031 OVC040 08/04 A3004 RMK AO2
KDNS 240115Z AUTO 09004KT 10SM OVC044 08/04 A3004 RMK AO2
KDNS 240055Z AUTO 12006KT 10SM SCT045 OVC060 08/04 A3005 RMK AO2
KDNS 240035Z AUTO 5/25000005G11KT 10SM OVC060 08/04 A3004 RMK AO2
KDNS 240015Z AUTO 09011KT 10SM OVC055 08/04 A3005 RMK AO2
KDNS 232355Z AUTO 10008KT 10SM BKN047 OVC055 08/03 A3006 RMK AO2
KDNS 232335Z AUTO 11010KT 10SM BKN049 OVC055 08/04 A3006 RMK AO2
KDNS 232315Z AUTO 10010KT 10SM OVC055 09/03 A3005 RMK AO2
KDNS 232255Z AUTO 10009KT 10SM OVC065 09/03 A3006 RMK AO2
KDNS 232235Z AUTO 12009G15KT 10SM OVC070 09/03 A3007 RMK AO2
KDNS 232215Z AUTO 11011KT 10SM OVC075 09/04 A3006 RMK AO2
KDNS 232155Z AUTO 10011KT 10SM OVC080 10/03 A3006 RMK AO2
KDNS 232135Z AUTO 10010G15KT 10SM BKN080 10/03 A3007 RMK AO2
KDNS 232115Z AUTO 11012KT 10SM FEW080 10/03 A3007 RMK AO2
KDNS 232055Z AUTO 10011KT 10SM CLR 10/03 A3008 RMK AO2
KDNS 232035Z AUTO 11010G15KT 10SM SCT080 10/03 A3008 RMK AO2
KDNS 232015Z AUTO 12009G15KT 10SM BKN085 10/02 A3009 RMK AO2
KDNS 231955Z AUTO 11011KT 10SM FEW090 10/03 A3008 RMK AO2
KDNS 231935Z AUTO 11010KT 10SM CLR 11/02 A3009 RMK AO2
KDNS 231915Z AUTO 12008G13KT 10SM CLR 10/03 A3010 RMK AO2
KDNS 231855Z AUTO 11008KT 10SM CLR 10/03 A3010 RMK AO2
KDNS 231835Z AUTO 12010G15KT 10SM FEW060 10/02 A3012 RMK AO2
KDNS 231815Z AUTO 15014KT 10SM BKN060 11/00 A3013 RMK AO2
KDNS 231755Z AUTO 13007KT 10SM SCT060 11/01 A3013 RMK AO2
KDNS 231735Z AUTO 13007KT 10SM CLR 11/01 A3014 RMK AO2
KDNS 231715Z AUTO 13007KT 10SM CLR 10/02 A3015 RMK AO2
KDNS 231655Z AUTO 13008KT 10SM CLR 09/02 A3015 RMK AO2
KDNS 231635Z AUTO 13008KT 10SM CLR 09/01 A3016 RMK AO2
KDNS 231615Z AUTO 13007G14KT 10SM CLR 10/01 A3016 RMK AO2
KDNS 231555Z AUTO 12009G15KT 10SM CLR 09/01 A3016 RMK AO2
KDNS 231535Z AUTO 12009KT 10SM CLR 08/01 A3017 RMK AO2
KDNS 231515Z AUTO 12007KT 10SM CLR 07/01 A3017 RMK AO2
KDNS 231455Z AUTO 12009KT 10SM CLR 07/01 A3017 RMK AO2
KDNS 231435Z AUTO 13007KT 10SM CLR 06/01 A3017 RMK AO2
KDNS 231415Z AUTO 00000KT 10SM CLR 05/00 A3017 RMK AO2
KDNS 231355Z AUTO 11008KT 10SM CLR 04/M00 A3017 RMK AO2
KDNS 231335Z AUTO 11003KT 10SM CLR 03/M00 A3017 RMK AO2
KDNS 231315Z AUTO 07005KT 10SM CLR 02/M00 A3017 RMK AO2